sensor_id;sensor_type;location;lat;lon;timestamp;P1;durP1;ratioP1;P2;durP2;ratioP2
23260;SDS011;11799;47.740;-3.390;2024-01-27T00:00:08;19.90;;;6.65;;
23260;SDS011;11799;47.740;-3.390;2024-01-27T00:02:37;21.92;;;6.47;;
23260;SDS011;11799;47.740;-3.390;2024-01-27T00:05:02;15.25;;;6.25;;
23260;SDS011;11799;47.740;-3.390;2024-01-27T00:07:28;16.13;;;6.32;;
23260;SDS011;11799;47.740;-3.390;2024-01-27T00:09:54;14.75;;;6.07;;
23260;SDS011;11799;47.740;-3.390;2024-01-27T00:12:20;14.98;;;5.30;;
23260;SDS011;11799;47.740;-3.390;2024-01-27T00:14:46;14.60;;;5.68;;
23260;SDS011;11799;47.740;-3.390;2024-01-27T00:17:11;20.60;;;6.43;;
23260;SDS011;11799;47.740;-3.390;2024-01-27T00:19:37;21.15;;;5.75;;
23260;SDS011;11799;47.740;-3.390;2024-01-27T00:22:03;15.43;;;4.65;;
23260;SDS011;11799;47.740;-3.390;2024-01-27T00:24:28;25.63;;;5.82;;
23260;SDS011;11799;47.740;-3.390;2024-01-27T00:26:54;15.73;;;4.95;;
23260;SDS011;11799;47.740;-3.390;2024-01-27T00:29:19;14.15;;;6.13;;
23260;SDS011;11799;47.740;-3.390;2024-01-27T00:31:45;17.02;;;5.45;;
23260;SDS011;11799;47.740;-3.390;2024-01-27T00:34:11;14.50;;;4.43;;
23260;SDS011;11799;47.740;-3.390;2024-01-27T00:36:36;16.63;;;5.45;;
23260;SDS011;11799;47.740;-3.390;2024-01-27T00:39:03;20.60;;;5.82;;
23260;SDS011;11799;47.740;-3.390;2024-01-27T00:41:29;15.82;;;4.78;;
23260;SDS011;11799;47.740;-3.390;2024-01-27T00:43:55;15.00;;;5.07;;
23260;SDS011;11799;47.740;-3.390;2024-01-27T00:46:20;14.35;;;4.85;;
23260;SDS011;11799;47.740;-3.390;2024-01-27T00:48:46;16.83;;;5.43;;
23260;SDS011;11799;47.740;-3.390;2024-01-27T00:51:12;17.35;;;5.25;;
23260;SDS011;11799;47.740;-3.390;2024-01-27T00:53:38;16.38;;;4.57;;
23260;SDS011;11799;47.740;-3.390;2024-01-27T00:56:04;16.33;;;4.90;;
23260;SDS011;11799;47.740;-3.390;2024-01-27T00:58:30;14.07;;;4.78;;
23260;SDS011;11799;47.740;-3.390;2024-01-27T01:00:56;16.15;;;4.90;;
23260;SDS011;11799;47.740;-3.390;2024-01-27T01:03:22;15.15;;;4.88;;
23260;SDS011;11799;47.740;-3.390;2024-01-27T01:05:47;18.05;;;4.68;;
23260;SDS011;11799;47.740;-3.390;2024-01-27T01:08:13;13.00;;;4.60;;
23260;SDS011;11799;47.740;-3.390;2024-01-27T01:10:38;17.98;;;4.72;;
23260;SDS011;11799;47.740;-3.390;2024-01-27T01:13:04;15.05;;;5.10;;
23260;SDS011;11799;47.740;-3.390;2024-01-27T01:15:30;14.85;;;5.88;;
23260;SDS011;11799;47.740;-3.390;2024-01-27T01:17:55;18.80;;;5.28;;
23260;SDS011;11799;47.740;-3.390;2024-01-27T01:20:21;12.38;;;4.90;;
23260;SDS011;11799;47.740;-3.390;2024-01-27T01:22:46;15.23;;;4.80;;
23260;SDS011;11799;47.740;-3.390;2024-01-27T01:25:12;16.30;;;4.50;;
23260;SDS011;11799;47.740;-3.390;2024-01-27T01:27:37;16.95;;;5.07;;
23260;SDS011;11799;47.740;-3.390;2024-01-27T01:30:03;14.75;;;4.85;;
23260;SDS011;11799;47.740;-3.390;2024-01-27T01:32:29;14.30;;;4.40;;
23260;SDS011;11799;47.740;-3.390;2024-01-27T01:34:55;18.60;;;4.82;;
23260;SDS011;11799;47.740;-3.390;2024-01-27T01:37:20;11.18;;;4.40;;
23260;SDS011;11799;47.740;-3.390;2024-01-27T01:39:46;14.98;;;4.82;;
23260;SDS011;11799;47.740;-3.390;2024-01-27T01:42:11;16.58;;;5.05;;
23260;SDS011;11799;47.740;-3.390;2024-01-27T01:44:37;18.08;;;5.15;;
23260;SDS011;11799;47.740;-3.390;2024-01-27T01:47:02;17.10;;;5.97;;
23260;SDS011;11799;47.740;-3.390;2024-01-27T01:49:29;17.42;;;5.72;;
23260;SDS011;11799;47.740;-3.390;2024-01-27T01:51:54;15.43;;;6.00;;
23260;SDS011;11799;47.740;-3.390;2024-01-27T01:54:20;21.23;;;6.30;;
23260;SDS011;11799;47.740;-3.390;2024-01-27T01:56:47;15.85;;;6.07;;
23260;SDS011;11799;47.740;-3.390;2024-01-27T01:59:13;21.33;;;6.93;;
23260;SDS011;11799;47.740;-3.390;2024-01-27T02:01:39;16.95;;;6.78;;
23260;SDS011;11799;47.740;-3.390;2024-01-27T02:04:04;19.25;;;7.55;;
23260;SDS011;11799;47.740;-3.390;2024-01-27T02:06:30;23.00;;;8.20;;
23260;SDS011;11799;47.740;-3.390;2024-01-27T02:08:55;18.80;;;7.82;;
23260;SDS011;11799;47.740;-3.390;2024-01-27T02:11:21;23.67;;;8.90;;
23260;SDS011;11799;47.740;-3.390;2024-01-27T02:13:46;25.75;;;8.70;;
23260;SDS011;11799;47.740;-3.390;2024-01-27T02:16:13;21.40;;;8.65;;
23260;SDS011;11799;47.740;-3.390;2024-01-27T02:18:38;17.95;;;8.60;;
23260;SDS011;11799;47.740;-3.390;2024-01-27T02:21:04;15.50;;;8.48;;
23260;SDS011;11799;47.740;-3.390;2024-01-27T02:23:29;21.88;;;8.05;;
23260;SDS011;11799;47.740;-3.390;2024-01-27T02:25:55;20.10;;;7.93;;
23260;SDS011;11799;47.740;-3.390;2024-01-27T02:28:21;20.23;;;8.48;;
23260;SDS011;11799;47.740;-3.390;2024-01-27T02:30:48;23.77;;;8.73;;
23260;SDS011;11799;47.740;-3.390;2024-01-27T02:33:14;18.90;;;7.15;;
23260;SDS011;11799;47.740;-3.390;2024-01-27T02:35:39;18.23;;;6.43;;
23260;SDS011;11799;47.740;-3.390;2024-01-27T02:38:05;13.57;;;5.82;;
23260;SDS011;11799;47.740;-3.390;2024-01-27T02:40:30;17.00;;;6.85;;
23260;SDS011;11799;47.740;-3.390;2024-01-27T02:42:56;17.77;;;6.15;;
23260;SDS011;11799;47.740;-3.390;2024-01-27T02:45:21;16.80;;;5.53;;
23260;SDS011;11799;47.740;-3.390;2024-01-27T02:47:47;17.38;;;7.15;;
23260;SDS011;11799;47.740;-3.390;2024-01-27T02:50:12;12.98;;;6.57;;
23260;SDS011;11799;47.740;-3.390;2024-01-27T02:52:38;15.07;;;7.20;;
23260;SDS011;11799;47.740;-3.390;2024-01-27T02:55:04;21.50;;;7.68;;
23260;SDS011;11799;47.740;-3.390;2024-01-27T02:57:30;19.67;;;6.22;;
23260;SDS011;11799;47.740;-3.390;2024-01-27T02:59:56;17.98;;;7.22;;
23260;SDS011;11799;47.740;-3.390;2024-01-27T03:02:21;18.60;;;7.60;;
23260;SDS011;11799;47.740;-3.390;2024-01-27T03:04:47;17.65;;;7.07;;
23260;SDS011;11799;47.740;-3.390;2024-01-27T03:07:12;17.95;;;7.15;;
23260;SDS011;11799;47.740;-3.390;2024-01-27T03:09:38;20.23;;;6.68;;
23260;SDS011;11799;47.740;-3.390;2024-01-27T03:12:03;20.88;;;5.85;;
23260;SDS011;11799;47.740;-3.390;2024-01-27T03:14:29;15.90;;;5.40;;
23260;SDS011;11799;47.740;-3.390;2024-01-27T03:16:55;19.88;;;5.85;;
23260;SDS011;11799;47.740;-3.390;2024-01-27T03:19:21;14.40;;;6.32;;
23260;SDS011;11799;47.740;-3.390;2024-01-27T03:21:47;19.73;;;7.43;;
23260;SDS011;11799;47.740;-3.390;2024-01-27T03:24:12;24.67;;;8.13;;
23260;SDS011;11799;47.740;-3.390;2024-01-27T03:26:38;18.15;;;7.93;;
23260;SDS011;11799;47.740;-3.390;2024-01-27T03:29:03;18.73;;;7.93;;
23260;SDS011;11799;47.740;-3.390;2024-01-27T03:31:32;25.23;;;8.25;;
23260;SDS011;11799;47.740;-3.390;2024-01-27T03:36:25;24.02;;;8.90;;
23260;SDS011;11799;47.740;-3.390;2024-01-27T03:38:50;16.77;;;7.60;;
23260;SDS011;11799;47.740;-3.390;2024-01-27T03:41:16;16.58;;;6.72;;
23260;SDS011;11799;47.740;-3.390;2024-01-27T03:43:41;14.13;;;6.55;;
23260;SDS011;11799;47.740;-3.390;2024-01-27T03:46:07;21.88;;;6.55;;
23260;SDS011;11799;47.740;-3.390;2024-01-27T03:48:33;15.85;;;5.95;;
23260;SDS011;11799;47.740;-3.390;2024-01-27T03:51:00;16.45;;;5.80;;
23260;SDS011;11799;47.740;-3.390;2024-01-27T03:53:26;13.50;;;5.57;;
23260;SDS011;11799;47.740;-3.390;2024-01-27T03:55:52;15.48;;;5.57;;
23260;SDS011;11799;47.740;-3.390;2024-01-27T03:58:18;15.00;;;5.18;;
23260;SDS011;11799;47.740;-3.390;2024-01-27T04:00:44;16.38;;;5.25;;
23260;SDS011;11799;47.740;-3.390;2024-01-27T04:03:09;19.15;;;5.57;;
23260;SDS011;11799;47.740;-3.390;2024-01-27T04:05:35;12.93;;;5.50;;
23260;SDS011;11799;47.740;-3.390;2024-01-27T04:08:01;17.13;;;6.32;;
23260;SDS011;11799;47.740;-3.390;2024-01-27T04:10:27;12.32;;;5.13;;
23260;SDS011;11799;47.740;-3.390;2024-01-27T04:12:53;20.10;;;7.00;;
23260;SDS011;11799;47.740;-3.390;2024-01-27T04:15:18;11.52;;;6.05;;
23260;SDS011;11799;47.740;-3.390;2024-01-27T04:17:44;19.13;;;6.32;;
23260;SDS011;11799;47.740;-3.390;2024-01-27T04:20:10;15.45;;;5.57;;
23260;SDS011;11799;47.740;-3.390;2024-01-27T04:22:36;15.85;;;6.15;;
23260;SDS011;11799;47.740;-3.390;2024-01-27T04:25:01;18.08;;;5.80;;
23260;SDS011;11799;47.740;-3.390;2024-01-27T04:27:28;18.20;;;6.40;;
23260;SDS011;11799;47.740;-3.390;2024-01-27T04:29:54;15.07;;;5.53;;
23260;SDS011;11799;47.740;-3.390;2024-01-27T04:32:19;13.55;;;4.97;;
23260;SDS011;11799;47.740;-3.390;2024-01-27T04:34:46;16.23;;;5.30;;
23260;SDS011;11799;47.740;-3.390;2024-01-27T04:37:12;12.00;;;5.07;;
23260;SDS011;11799;47.740;-3.390;2024-01-27T04:39:38;16.05;;;5.10;;
23260;SDS011;11799;47.740;-3.390;2024-01-27T04:42:03;15.23;;;4.97;;
23260;SDS011;11799;47.740;-3.390;2024-01-27T04:44:31;10.73;;;5.60;;
23260;SDS011;11799;47.740;-3.390;2024-01-27T04:46:57;14.93;;;5.10;;
23260;SDS011;11799;47.740;-3.390;2024-01-27T04:49:22;12.95;;;5.10;;
23260;SDS011;11799;47.740;-3.390;2024-01-27T04:51:48;14.85;;;4.25;;
23260;SDS011;11799;47.740;-3.390;2024-01-27T04:54:14;13.35;;;4.45;;
23260;SDS011;11799;47.740;-3.390;2024-01-27T04:56:39;17.13;;;5.07;;
23260;SDS011;11799;47.740;-3.390;2024-01-27T04:59:05;19.80;;;5.70;;
23260;SDS011;11799;47.740;-3.390;2024-01-27T05:01:31;17.70;;;5.07;;
23260;SDS011;11799;47.740;-3.390;2024-01-27T05:03:57;13.85;;;4.60;;
23260;SDS011;11799;47.740;-3.390;2024-01-27T05:06:22;12.23;;;4.13;;
23260;SDS011;11799;47.740;-3.390;2024-01-27T05:08:48;14.15;;;4.05;;
23260;SDS011;11799;47.740;-3.390;2024-01-27T05:11:15;11.10;;;3.83;;
23260;SDS011;11799;47.740;-3.390;2024-01-27T05:13:41;7.07;;;3.03;;
23260;SDS011;11799;47.740;-3.390;2024-01-27T05:16:07;13.07;;;3.08;;
23260;SDS011;11799;47.740;-3.390;2024-01-27T05:18:32;12.07;;;3.13;;
23260;SDS011;11799;47.740;-3.390;2024-01-27T05:20:57;13.45;;;2.92;;
23260;SDS011;11799;47.740;-3.390;2024-01-27T05:23:23;12.50;;;3.10;;
23260;SDS011;11799;47.740;-3.390;2024-01-27T05:25:48;10.32;;;3.47;;
23260;SDS011;11799;47.740;-3.390;2024-01-27T05:28:14;13.65;;;3.95;;
23260;SDS011;11799;47.740;-3.390;2024-01-27T05:30:40;11.75;;;3.25;;
23260;SDS011;11799;47.740;-3.390;2024-01-27T05:33:05;9.50;;;2.70;;
23260;SDS011;11799;47.740;-3.390;2024-01-27T05:35:31;21.73;;;3.50;;
23260;SDS011;11799;47.740;-3.390;2024-01-27T05:37:56;12.23;;;3.30;;
23260;SDS011;11799;47.740;-3.390;2024-01-27T05:40:22;8.85;;;2.55;;
23260;SDS011;11799;47.740;-3.390;2024-01-27T05:42:47;13.50;;;3.35;;
23260;SDS011;11799;47.740;-3.390;2024-01-27T05:45:14;11.00;;;2.88;;
23260;SDS011;11799;47.740;-3.390;2024-01-27T05:47:40;9.32;;;2.70;;
23260;SDS011;11799;47.740;-3.390;2024-01-27T05:50:06;10.50;;;2.63;;
23260;SDS011;11799;47.740;-3.390;2024-01-27T05:52:33;10.35;;;2.90;;
23260;SDS011;11799;47.740;-3.390;2024-01-27T05:55:00;14.88;;;3.05;;
23260;SDS011;11799;47.740;-3.390;2024-01-27T05:57:26;8.80;;;3.05;;
23260;SDS011;11799;47.740;-3.390;2024-01-27T05:59:52;9.40;;;2.63;;
23260;SDS011;11799;47.740;-3.390;2024-01-27T06:02:17;7.80;;;2.67;;
23260;SDS011;11799;47.740;-3.390;2024-01-27T06:04:43;13.50;;;3.17;;
23260;SDS011;11799;47.740;-3.390;2024-01-27T06:07:09;9.15;;;2.65;;
23260;SDS011;11799;47.740;-3.390;2024-01-27T06:09:36;8.68;;;2.78;;
23260;SDS011;11799;47.740;-3.390;2024-01-27T06:12:02;6.15;;;2.20;;
23260;SDS011;11799;47.740;-3.390;2024-01-27T06:14:28;14.13;;;2.83;;
23260;SDS011;11799;47.740;-3.390;2024-01-27T06:16:54;7.63;;;2.25;;
23260;SDS011;11799;47.740;-3.390;2024-01-27T06:19:19;12.68;;;3.13;;
23260;SDS011;11799;47.740;-3.390;2024-01-27T06:21:45;12.65;;;3.20;;
23260;SDS011;11799;47.740;-3.390;2024-01-27T06:24:10;12.38;;;2.92;;
23260;SDS011;11799;47.740;-3.390;2024-01-27T06:26:36;10.27;;;3.30;;
23260;SDS011;11799;47.740;-3.390;2024-01-27T06:29:02;9.80;;;3.45;;
23260;SDS011;11799;47.740;-3.390;2024-01-27T06:31:29;9.38;;;3.10;;
23260;SDS011;11799;47.740;-3.390;2024-01-27T06:33:54;8.35;;;2.85;;
23260;SDS011;11799;47.740;-3.390;2024-01-27T06:36:20;9.27;;;3.17;;
23260;SDS011;11799;47.740;-3.390;2024-01-27T06:38:49;9.47;;;3.30;;
23260;SDS011;11799;47.740;-3.390;2024-01-27T06:41:15;13.63;;;3.72;;
23260;SDS011;11799;47.740;-3.390;2024-01-27T06:43:42;13.40;;;2.85;;
23260;SDS011;11799;47.740;-3.390;2024-01-27T06:46:07;9.35;;;2.53;;
23260;SDS011;11799;47.740;-3.390;2024-01-27T06:48:33;11.23;;;2.95;;
23260;SDS011;11799;47.740;-3.390;2024-01-27T06:50:59;10.68;;;3.10;;
23260;SDS011;11799;47.740;-3.390;2024-01-27T06:53:24;13.13;;;3.17;;
23260;SDS011;11799;47.740;-3.390;2024-01-27T06:55:50;9.88;;;2.85;;
23260;SDS011;11799;47.740;-3.390;2024-01-27T06:58:15;10.15;;;3.20;;
23260;SDS011;11799;47.740;-3.390;2024-01-27T07:00:41;9.77;;;2.88;;
23260;SDS011;11799;47.740;-3.390;2024-01-27T07:03:06;9.60;;;2.72;;
23260;SDS011;11799;47.740;-3.390;2024-01-27T07:05:32;15.15;;;3.08;;
23260;SDS011;11799;47.740;-3.390;2024-01-27T07:08:04;11.65;;;3.30;;
23260;SDS011;11799;47.740;-3.390;2024-01-27T07:10:33;7.95;;;3.20;;
23260;SDS011;11799;47.740;-3.390;2024-01-27T07:12:59;8.27;;;2.83;;
23260;SDS011;11799;47.740;-3.390;2024-01-27T07:15:25;10.68;;;2.63;;
23260;SDS011;11799;47.740;-3.390;2024-01-27T07:17:52;15.25;;;2.88;;
23260;SDS011;11799;47.740;-3.390;2024-01-27T07:20:18;12.45;;;3.22;;
23260;SDS011;11799;47.740;-3.390;2024-01-27T07:22:45;10.98;;;3.25;;
23260;SDS011;11799;47.740;-3.390;2024-01-27T07:25:10;8.90;;;2.97;;
23260;SDS011;11799;47.740;-3.390;2024-01-27T07:27:36;12.30;;;3.90;;
23260;SDS011;11799;47.740;-3.390;2024-01-27T07:30:02;13.48;;;4.30;;
23260;SDS011;11799;47.740;-3.390;2024-01-27T07:32:28;10.50;;;3.63;;
23260;SDS011;11799;47.740;-3.390;2024-01-27T07:34:54;7.30;;;3.33;;
23260;SDS011;11799;47.740;-3.390;2024-01-27T07:37:19;10.57;;;3.40;;
23260;SDS011;11799;47.740;-3.390;2024-01-27T07:39:46;8.82;;;2.95;;
23260;SDS011;11799;47.740;-3.390;2024-01-27T07:42:14;12.45;;;3.45;;
23260;SDS011;11799;47.740;-3.390;2024-01-27T07:44:40;8.38;;;2.90;;
23260;SDS011;11799;47.740;-3.390;2024-01-27T07:47:06;11.05;;;3.15;;
23260;SDS011;11799;47.740;-3.390;2024-01-27T07:49:31;13.15;;;3.00;;
23260;SDS011;11799;47.740;-3.390;2024-01-27T07:51:57;11.82;;;3.20;;
23260;SDS011;11799;47.740;-3.390;2024-01-27T07:54:23;11.55;;;3.42;;
23260;SDS011;11799;47.740;-3.390;2024-01-27T07:56:48;11.30;;;2.80;;
23260;SDS011;11799;47.740;-3.390;2024-01-27T07:59:14;9.38;;;3.03;;
23260;SDS011;11799;47.740;-3.390;2024-01-27T08:01:42;7.47;;;2.40;;
23260;SDS011;11799;47.740;-3.390;2024-01-27T08:04:09;12.23;;;3.13;;
23260;SDS011;11799;47.740;-3.390;2024-01-27T08:06:47;11.07;;;3.10;;
23260;SDS011;11799;47.740;-3.390;2024-01-27T08:09:16;12.45;;;3.85;;
23260;SDS011;11799;47.740;-3.390;2024-01-27T08:11:42;7.10;;;3.38;;
23260;SDS011;11799;47.740;-3.390;2024-01-27T08:14:08;11.80;;;3.28;;
23260;SDS011;11799;47.740;-3.390;2024-01-27T08:16:34;9.65;;;2.92;;
23260;SDS011;11799;47.740;-3.390;2024-01-27T08:19:00;9.35;;;3.05;;
23260;SDS011;11799;47.740;-3.390;2024-01-27T08:21:25;10.43;;;2.72;;
23260;SDS011;11799;47.740;-3.390;2024-01-27T08:23:51;9.63;;;3.05;;
23260;SDS011;11799;47.740;-3.390;2024-01-27T08:26:16;9.13;;;3.20;;
23260;SDS011;11799;47.740;-3.390;2024-01-27T08:28:43;17.13;;;3.85;;
23260;SDS011;11799;47.740;-3.390;2024-01-27T08:31:09;8.30;;;2.95;;
23260;SDS011;11799;47.740;-3.390;2024-01-27T08:33:35;10.25;;;3.22;;
23260;SDS011;11799;47.740;-3.390;2024-01-27T08:36:00;8.65;;;3.25;;
23260;SDS011;11799;47.740;-3.390;2024-01-27T08:38:27;7.40;;;2.50;;
23260;SDS011;11799;47.740;-3.390;2024-01-27T08:40:52;10.85;;;3.30;;
23260;SDS011;11799;47.740;-3.390;2024-01-27T08:43:18;10.07;;;3.58;;
23260;SDS011;11799;47.740;-3.390;2024-01-27T08:45:44;14.35;;;3.25;;
23260;SDS011;11799;47.740;-3.390;2024-01-27T08:48:10;9.30;;;3.60;;
23260;SDS011;11799;47.740;-3.390;2024-01-27T08:50:36;7.55;;;2.60;;
23260;SDS011;11799;47.740;-3.390;2024-01-27T08:53:03;10.23;;;3.10;;
23260;SDS011;11799;47.740;-3.390;2024-01-27T08:55:29;7.43;;;2.90;;
23260;SDS011;11799;47.740;-3.390;2024-01-27T08:57:55;8.25;;;3.22;;
23260;SDS011;11799;47.740;-3.390;2024-01-27T09:00:21;10.73;;;2.55;;
23260;SDS011;11799;47.740;-3.390;2024-01-27T09:02:47;10.65;;;2.90;;
23260;SDS011;11799;47.740;-3.390;2024-01-27T09:05:13;9.52;;;3.22;;
23260;SDS011;11799;47.740;-3.390;2024-01-27T09:07:39;9.52;;;2.90;;
23260;SDS011;11799;47.740;-3.390;2024-01-27T09:10:04;9.40;;;3.15;;
23260;SDS011;11799;47.740;-3.390;2024-01-27T09:12:30;9.10;;;3.10;;
23260;SDS011;11799;47.740;-3.390;2024-01-27T09:14:56;13.13;;;3.08;;
23260;SDS011;11799;47.740;-3.390;2024-01-27T09:17:21;7.80;;;2.72;;
23260;SDS011;11799;47.740;-3.390;2024-01-27T09:19:47;7.40;;;3.03;;
23260;SDS011;11799;47.740;-3.390;2024-01-27T09:22:12;9.10;;;3.08;;
23260;SDS011;11799;47.740;-3.390;2024-01-27T09:24:38;10.30;;;3.53;;
23260;SDS011;11799;47.740;-3.390;2024-01-27T09:27:05;9.15;;;3.00;;
23260;SDS011;11799;47.740;-3.390;2024-01-27T09:29:31;8.57;;;2.95;;
23260;SDS011;11799;47.740;-3.390;2024-01-27T09:31:56;9.32;;;3.28;;
23260;SDS011;11799;47.740;-3.390;2024-01-27T09:34:22;12.35;;;3.45;;
23260;SDS011;11799;47.740;-3.390;2024-01-27T09:36:47;9.63;;;3.08;;
23260;SDS011;11799;47.740;-3.390;2024-01-27T09:39:13;10.35;;;3.60;;
23260;SDS011;11799;47.740;-3.390;2024-01-27T09:41:38;10.38;;;3.13;;
23260;SDS011;11799;47.740;-3.390;2024-01-27T09:44:05;10.02;;;3.05;;
23260;SDS011;11799;47.740;-3.390;2024-01-27T09:46:31;5.70;;;2.75;;
23260;SDS011;11799;47.740;-3.390;2024-01-27T09:48:58;9.48;;;2.85;;
23260;SDS011;11799;47.740;-3.390;2024-01-27T09:51:24;6.93;;;2.78;;
23260;SDS011;11799;47.740;-3.390;2024-01-27T09:53:51;7.13;;;3.08;;
23260;SDS011;11799;47.740;-3.390;2024-01-27T09:56:17;6.70;;;3.05;;
23260;SDS011;11799;47.740;-3.390;2024-01-27T09:58:46;10.10;;;3.03;;
23260;SDS011;11799;47.740;-3.390;2024-01-27T10:01:18;7.70;;;2.83;;
23260;SDS011;11799;47.740;-3.390;2024-01-27T10:03:46;11.63;;;3.50;;
23260;SDS011;11799;47.740;-3.390;2024-01-27T10:06:12;9.20;;;2.85;;
23260;SDS011;11799;47.740;-3.390;2024-01-27T10:08:40;9.82;;;3.22;;
23260;SDS011;11799;47.740;-3.390;2024-01-27T10:11:09;8.95;;;3.28;;
23260;SDS011;11799;47.740;-3.390;2024-01-27T10:13:35;10.75;;;3.00;;
23260;SDS011;11799;47.740;-3.390;2024-01-27T10:18:28;9.68;;;3.10;;
23260;SDS011;11799;47.740;-3.390;2024-01-27T10:20:57;10.68;;;3.00;;
23260;SDS011;11799;47.740;-3.390;2024-01-27T10:23:23;8.65;;;2.88;;
23260;SDS011;11799;47.740;-3.390;2024-01-27T10:25:49;16.10;;;3.42;;
23260;SDS011;11799;47.740;-3.390;2024-01-27T10:28:15;9.30;;;2.80;;
23260;SDS011;11799;47.740;-3.390;2024-01-27T10:30:41;8.40;;;2.80;;
23260;SDS011;11799;47.740;-3.390;2024-01-27T10:33:10;11.88;;;3.30;;
23260;SDS011;11799;47.740;-3.390;2024-01-27T10:35:39;9.25;;;2.72;;
23260;SDS011;11799;47.740;-3.390;2024-01-27T10:38:05;11.38;;;3.33;;
23260;SDS011;11799;47.740;-3.390;2024-01-27T10:40:31;6.63;;;2.92;;
23260;SDS011;11799;47.740;-3.390;2024-01-27T10:43:00;7.43;;;2.42;;
23260;SDS011;11799;47.740;-3.390;2024-01-27T10:45:46;8.65;;;2.50;;
23260;SDS011;11799;47.740;-3.390;2024-01-27T10:48:11;7.68;;;2.50;;
23260;SDS011;11799;47.740;-3.390;2024-01-27T10:50:38;7.93;;;2.55;;
23260;SDS011;11799;47.740;-3.390;2024-01-27T10:53:08;6.97;;;2.47;;
23260;SDS011;11799;47.740;-3.390;2024-01-27T10:55:34;8.68;;;3.38;;
23260;SDS011;11799;47.740;-3.390;2024-01-27T10:58:02;4.75;;;2.42;;
23260;SDS011;11799;47.740;-3.390;2024-01-27T11:00:28;6.38;;;2.58;;
23260;SDS011;11799;47.740;-3.390;2024-01-27T11:02:58;7.35;;;2.83;;
23260;SDS011;11799;47.740;-3.390;2024-01-27T11:05:27;8.07;;;2.50;;
23260;SDS011;11799;47.740;-3.390;2024-01-27T11:07:54;9.00;;;2.90;;
23260;SDS011;11799;47.740;-3.390;2024-01-27T11:10:22;7.80;;;3.00;;
23260;SDS011;11799;47.740;-3.390;2024-01-27T11:12:48;9.98;;;3.30;;
23260;SDS011;11799;47.740;-3.390;2024-01-27T11:15:15;18.40;;;5.45;;
23260;SDS011;11799;47.740;-3.390;2024-01-27T11:17:41;5.43;;;3.20;;
23260;SDS011;11799;47.740;-3.390;2024-01-27T11:20:07;19.27;;;10.45;;
23260;SDS011;11799;47.740;-3.390;2024-01-27T11:22:36;7.47;;;3.50;;
23260;SDS011;11799;47.740;-3.390;2024-01-27T11:27:38;5.38;;;2.22;;
23260;SDS011;11799;47.740;-3.390;2024-01-27T11:30:05;6.72;;;2.75;;
23260;SDS011;11799;47.740;-3.390;2024-01-27T11:32:48;8.27;;;2.97;;
23260;SDS011;11799;47.740;-3.390;2024-01-27T11:35:14;6.85;;;2.75;;
23260;SDS011;11799;47.740;-3.390;2024-01-27T11:37:42;10.80;;;2.78;;
23260;SDS011;11799;47.740;-3.390;2024-01-27T11:40:08;7.03;;;2.70;;
23260;SDS011;11799;47.740;-3.390;2024-01-27T11:42:34;12.98;;;3.17;;
23260;SDS011;11799;47.740;-3.390;2024-01-27T11:45:00;8.80;;;2.78;;
23260;SDS011;11799;47.740;-3.390;2024-01-27T11:47:27;9.05;;;2.67;;
23260;SDS011;11799;47.740;-3.390;2024-01-27T11:49:53;7.20;;;2.38;;
23260;SDS011;11799;47.740;-3.390;2024-01-27T11:52:20;6.15;;;2.35;;
23260;SDS011;11799;47.740;-3.390;2024-01-27T11:54:53;11.10;;;2.60;;
23260;SDS011;11799;47.740;-3.390;2024-01-27T11:57:19;6.30;;;2.25;;
23260;SDS011;11799;47.740;-3.390;2024-01-27T11:59:45;10.13;;;2.67;;
23260;SDS011;11799;47.740;-3.390;2024-01-27T12:02:10;8.25;;;3.00;;
23260;SDS011;11799;47.740;-3.390;2024-01-27T12:04:36;5.13;;;2.50;;
23260;SDS011;11799;47.740;-3.390;2024-01-27T12:07:02;7.20;;;2.78;;
23260;SDS011;11799;47.740;-3.390;2024-01-27T12:09:28;6.00;;;2.55;;
23260;SDS011;11799;47.740;-3.390;2024-01-27T12:11:54;8.80;;;2.60;;
23260;SDS011;11799;47.740;-3.390;2024-01-27T12:14:19;5.30;;;2.42;;
23260;SDS011;11799;47.740;-3.390;2024-01-27T12:16:45;6.78;;;2.50;;
23260;SDS011;11799;47.740;-3.390;2024-01-27T12:19:12;6.80;;;2.30;;
23260;SDS011;11799;47.740;-3.390;2024-01-27T12:21:38;6.43;;;2.10;;
23260;SDS011;11799;47.740;-3.390;2024-01-27T12:24:15;6.80;;;2.30;;
23260;SDS011;11799;47.740;-3.390;2024-01-27T12:26:44;8.15;;;2.45;;
23260;SDS011;11799;47.740;-3.390;2024-01-27T12:29:10;5.97;;;1.90;;
23260;SDS011;11799;47.740;-3.390;2024-01-27T12:31:36;5.75;;;2.72;;
23260;SDS011;11799;47.740;-3.390;2024-01-27T12:34:02;8.55;;;2.70;;
23260;SDS011;11799;47.740;-3.390;2024-01-27T12:36:28;8.90;;;4.60;;
23260;SDS011;11799;47.740;-3.390;2024-01-27T12:41:21;6.43;;;2.33;;
23260;SDS011;11799;47.740;-3.390;2024-01-27T12:43:46;4.10;;;2.03;;
23260;SDS011;11799;47.740;-3.390;2024-01-27T12:46:12;3.35;;;1.80;;
23260;SDS011;11799;47.740;-3.390;2024-01-27T12:48:40;6.85;;;3.35;;
23260;SDS011;11799;47.740;-3.390;2024-01-27T12:51:05;6.85;;;2.28;;
23260;SDS011;11799;47.740;-3.390;2024-01-27T12:53:31;8.73;;;2.95;;
23260;SDS011;11799;47.740;-3.390;2024-01-27T12:55:56;4.75;;;2.20;;
23260;SDS011;11799;47.740;-3.390;2024-01-27T12:58:22;7.28;;;2.30;;
23260;SDS011;11799;47.740;-3.390;2024-01-27T13:00:48;12.57;;;3.05;;
23260;SDS011;11799;47.740;-3.390;2024-01-27T13:03:14;6.05;;;2.60;;
23260;SDS011;11799;47.740;-3.390;2024-01-27T13:05:39;4.22;;;1.80;;
23260;SDS011;11799;47.740;-3.390;2024-01-27T13:08:05;4.53;;;2.05;;
23260;SDS011;11799;47.740;-3.390;2024-01-27T13:10:31;5.45;;;2.03;;
23260;SDS011;11799;47.740;-3.390;2024-01-27T13:12:56;6.78;;;2.10;;
23260;SDS011;11799;47.740;-3.390;2024-01-27T13:15:23;4.90;;;1.90;;
23260;SDS011;11799;47.740;-3.390;2024-01-27T13:17:50;5.00;;;2.00;;
23260;SDS011;11799;47.740;-3.390;2024-01-27T13:20:16;7.20;;;1.92;;
23260;SDS011;11799;47.740;-3.390;2024-01-27T13:22:42;7.85;;;2.08;;
23260;SDS011;11799;47.740;-3.390;2024-01-27T13:25:08;8.27;;;2.08;;
23260;SDS011;11799;47.740;-3.390;2024-01-27T13:27:34;5.60;;;2.17;;
23260;SDS011;11799;47.740;-3.390;2024-01-27T13:30:00;5.63;;;1.92;;
23260;SDS011;11799;47.740;-3.390;2024-01-27T13:32:25;7.15;;;2.35;;
23260;SDS011;11799;47.740;-3.390;2024-01-27T13:34:52;7.93;;;2.30;;
23260;SDS011;11799;47.740;-3.390;2024-01-27T13:37:18;8.00;;;2.10;;
23260;SDS011;11799;47.740;-3.390;2024-01-27T13:39:44;8.52;;;2.58;;
23260;SDS011;11799;47.740;-3.390;2024-01-27T13:42:10;6.30;;;2.55;;
23260;SDS011;11799;47.740;-3.390;2024-01-27T13:44:36;10.30;;;2.67;;
23260;SDS011;11799;47.740;-3.390;2024-01-27T13:47:02;14.10;;;2.40;;
23260;SDS011;11799;47.740;-3.390;2024-01-27T13:49:30;12.07;;;2.88;;
23260;SDS011;11799;47.740;-3.390;2024-01-27T13:51:56;8.38;;;3.20;;
23260;SDS011;11799;47.740;-3.390;2024-01-27T13:54:22;6.72;;;2.10;;
23260;SDS011;11799;47.740;-3.390;2024-01-27T13:56:47;9.18;;;2.50;;
23260;SDS011;11799;47.740;-3.390;2024-01-27T13:59:13;10.13;;;3.92;;
23260;SDS011;11799;47.740;-3.390;2024-01-27T14:01:38;10.82;;;3.17;;
23260;SDS011;11799;47.740;-3.390;2024-01-27T14:04:04;9.55;;;4.13;;
23260;SDS011;11799;47.740;-3.390;2024-01-27T14:06:30;16.30;;;7.40;;
23260;SDS011;11799;47.740;-3.390;2024-01-27T14:08:56;11.48;;;4.90;;
23260;SDS011;11799;47.740;-3.390;2024-01-27T14:11:22;8.93;;;4.28;;
23260;SDS011;11799;47.740;-3.390;2024-01-27T14:13:47;8.80;;;3.72;;
23260;SDS011;11799;47.740;-3.390;2024-01-27T14:16:13;8.93;;;3.15;;
23260;SDS011;11799;47.740;-3.390;2024-01-27T14:18:39;8.05;;;2.75;;
23260;SDS011;11799;47.740;-3.390;2024-01-27T14:21:04;8.10;;;2.65;;
23260;SDS011;11799;47.740;-3.390;2024-01-27T14:23:30;10.07;;;2.13;;
23260;SDS011;11799;47.740;-3.390;2024-01-27T14:25:56;12.40;;;2.70;;
23260;SDS011;11799;47.740;-3.390;2024-01-27T14:28:22;16.17;;;2.95;;